sensor_id;sensor_type;location;lat;lon;timestamp;pressure;altitude;pressure_sealevel;temperature;humidity
48862;BME280;34681;49.188;-0.374;2022-07-18T00:02:24;101803.09;;;26.10;35.10
48862;BME280;34681;49.188;-0.374;2022-07-18T00:04:50;101804.56;;;26.13;34.96
48862;BME280;34681;49.188;-0.374;2022-07-18T00:07:15;101805.91;;;26.03;35.22
48862;BME280;34681;49.188;-0.374;2022-07-18T00:09:42;101813.28;;;25.98;35.47
48862;BME280;34681;49.188;-0.374;2022-07-18T00:12:09;101811.63;;;25.90;36.11
48862;BME280;34681;49.188;-0.374;2022-07-18T00:14:36;101819.38;;;25.82;35.88
48862;BME280;34681;49.188;-0.374;2022-07-18T00:17:04;101824.81;;;25.76;35.93
48862;BME280;34681;49.188;-0.374;2022-07-18T00:19:30;101822.47;;;25.73;36.16
48862;BME280;34681;49.188;-0.374;2022-07-18T00:21:55;101814.47;;;25.64;36.53
48862;BME280;34681;49.188;-0.374;2022-07-18T00:24:21;101811.91;;;25.56;36.48
48862;BME280;34681;49.188;-0.374;2022-07-18T00:26:46;101812.56;;;25.58;36.18
48862;BME280;34681;49.188;-0.374;2022-07-18T00:29:12;101805.84;;;25.65;36.25
48862;BME280;34681;49.188;-0.374;2022-07-18T00:31:37;101810.63;;;25.58;36.57
48862;BME280;34681;49.188;-0.374;2022-07-18T00:34:03;101813.66;;;25.50;35.85
48862;BME280;34681;49.188;-0.374;2022-07-18T00:36:30;101805.44;;;25.48;36.20
48862;BME280;34681;49.188;-0.374;2022-07-18T00:38:55;101803.97;;;25.46;36.27
48862;BME280;34681;49.188;-0.374;2022-07-18T00:41:21;101799.28;;;25.33;36.33
48862;BME280;34681;49.188;-0.374;2022-07-18T00:43:47;101798.81;;;25.30;36.74
48862;BME280;34681;49.188;-0.374;2022-07-18T00:46:12;101791.94;;;25.32;36.72
48862;BME280;34681;49.188;-0.374;2022-07-18T00:48:39;101791.72;;;25.27;36.71
48862;BME280;34681;49.188;-0.374;2022-07-18T00:51:05;101782.47;;;25.13;36.11
48862;BME280;34681;49.188;-0.374;2022-07-18T00:53:30;101795.63;;;25.13;35.71
48862;BME280;34681;49.188;-0.374;2022-07-18T00:55:55;101788.75;;;25.09;36.07
48862;BME280;34681;49.188;-0.374;2022-07-18T00:58:21;101794.53;;;25.01;36.39
48862;BME280;34681;49.188;-0.374;2022-07-18T01:00:47;101793.47;;;25.02;36.21
48862;BME280;34681;49.188;-0.374;2022-07-18T01:03:31;101802.53;;;25.04;36.40
48862;BME280;34681;49.188;-0.374;2022-07-18T01:05:56;101807.69;;;25.00;36.26
48862;BME280;34681;49.188;-0.374;2022-07-18T01:08:22;101805.34;;;25.10;36.08
48862;BME280;34681;49.188;-0.374;2022-07-18T01:10:47;101814.59;;;25.04;35.67
48862;BME280;34681;49.188;-0.374;2022-07-18T01:13:13;101804.88;;;24.87;35.75
48862;BME280;34681;49.188;-0.374;2022-07-18T01:15:38;101797.56;;;24.86;35.76
48862;BME280;34681;49.188;-0.374;2022-07-18T01:18:04;101785.94;;;24.89;35.93
48862;BME280;34681;49.188;-0.374;2022-07-18T01:20:30;101773.66;;;24.90;35.65
48862;BME280;34681;49.188;-0.374;2022-07-18T01:22:57;101774.31;;;24.85;35.78
48862;BME280;34681;49.188;-0.374;2022-07-18T01:25:22;101778.19;;;24.64;35.58
48862;BME280;34681;49.188;-0.374;2022-07-18T01:27:48;101772.81;;;24.50;36.50
48862;BME280;34681;49.188;-0.374;2022-07-18T01:30:13;101780.13;;;24.51;36.39
48862;BME280;34681;49.188;-0.374;2022-07-18T01:32:40;101782.69;;;24.46;36.83
48862;BME280;34681;49.188;-0.374;2022-07-18T01:35:06;101778.59;;;24.35;36.84
48862;BME280;34681;49.188;-0.374;2022-07-18T01:37:31;101769.75;;;24.25;36.88
48862;BME280;34681;49.188;-0.374;2022-07-18T01:39:56;101770.16;;;24.22;36.91
48862;BME280;34681;49.188;-0.374;2022-07-18T01:42:22;101777.75;;;24.48;36.46
48862;BME280;34681;49.188;-0.374;2022-07-18T01:44:48;101788.50;;;24.64;36.34
48862;BME280;34681;49.188;-0.374;2022-07-18T01:47:13;101790.69;;;24.69;36.16
48862;BME280;34681;49.188;-0.374;2022-07-18T01:49:39;101780.34;;;24.62;36.03
48862;BME280;34681;49.188;-0.374;2022-07-18T01:52:06;101776.91;;;24.54;36.44
48862;BME280;34681;49.188;-0.374;2022-07-18T01:54:33;101781.66;;;24.67;36.47
48862;BME280;34681;49.188;-0.374;2022-07-18T01:57:00;101777.53;;;24.62;36.69
48862;BME280;34681;49.188;-0.374;2022-07-18T01:59:26;101775.63;;;24.50;36.17
48862;BME280;34681;49.188;-0.374;2022-07-18T02:01:51;101781.81;;;24.32;36.60
48862;BME280;34681;49.188;-0.374;2022-07-18T02:04:17;101785.19;;;24.14;37.34
48862;BME280;34681;49.188;-0.374;2022-07-18T02:06:43;101777.69;;;24.21;37.21
48862;BME280;34681;49.188;-0.374;2022-07-18T02:09:09;101774.75;;;24.43;36.61
48862;BME280;34681;49.188;-0.374;2022-07-18T02:11:35;101772.09;;;24.21;36.65
48862;BME280;34681;49.188;-0.374;2022-07-18T02:14:01;101769.28;;;24.08;37.39
48862;BME280;34681;49.188;-0.374;2022-07-18T02:16:26;101767.78;;;24.19;37.30
48862;BME280;34681;49.188;-0.374;2022-07-18T02:18:52;101775.72;;;24.15;37.85
48862;BME280;34681;49.188;-0.374;2022-07-18T02:21:18;101782.59;;;24.06;37.85
48862;BME280;34681;49.188;-0.374;2022-07-18T02:23:43;101786.25;;;24.00;37.76
48862;BME280;34681;49.188;-0.374;2022-07-18T02:26:09;101789.22;;;23.98;37.77
48862;BME280;34681;49.188;-0.374;2022-07-18T02:28:35;101786.13;;;23.73;38.46
48862;BME280;34681;49.188;-0.374;2022-07-18T02:31:01;101790.59;;;23.61;38.84
48862;BME280;34681;49.188;-0.374;2022-07-18T02:33:27;101790.38;;;23.63;38.48
48862;BME280;34681;49.188;-0.374;2022-07-18T02:35:52;101786.09;;;23.60;38.61
48862;BME280;34681;49.188;-0.374;2022-07-18T02:38:17;101791.81;;;23.52;38.59
48862;BME280;34681;49.188;-0.374;2022-07-18T02:40:43;101792.25;;;23.55;38.63
48862;BME280;34681;49.188;-0.374;2022-07-18T02:43:08;101795.25;;;23.54;38.78
48862;BME280;34681;49.188;-0.374;2022-07-18T02:45:34;101796.97;;;23.55;38.49
48862;BME280;34681;49.188;-0.374;2022-07-18T02:48:00;101784.41;;;23.72;38.36
48862;BME280;34681;49.188;-0.374;2022-07-18T02:50:25;101800.66;;;24.03;37.88
48862;BME280;34681;49.188;-0.374;2022-07-18T02:52:51;101793.97;;;24.04;37.46
48862;BME280;34681;49.188;-0.374;2022-07-18T02:55:16;101794.97;;;23.77;37.48
48862;BME280;34681;49.188;-0.374;2022-07-18T02:57:42;101792.56;;;23.67;37.92
48862;BME280;34681;49.188;-0.374;2022-07-18T03:00:10;101785.03;;;23.74;38.24
48862;BME280;34681;49.188;-0.374;2022-07-18T03:02:36;101783.41;;;23.87;37.96
48862;BME280;34681;49.188;-0.374;2022-07-18T03:05:03;101785.97;;;23.88;37.85
48862;BME280;34681;49.188;-0.374;2022-07-18T03:07:29;101787.63;;;23.69;37.87
48862;BME280;34681;49.188;-0.374;2022-07-18T03:09:54;101798.28;;;23.59;38.28
48862;BME280;34681;49.188;-0.374;2022-07-18T03:12:20;101798.53;;;23.64;38.39
48862;BME280;34681;49.188;-0.374;2022-07-18T03:14:45;101796.25;;;23.81;38.01
48862;BME280;34681;49.188;-0.374;2022-07-18T03:17:11;101793.69;;;23.79;38.21
48862;BME280;34681;49.188;-0.374;2022-07-18T03:19:36;101792.38;;;23.75;38.18
48862;BME280;34681;49.188;-0.374;2022-07-18T03:22:03;101784.50;;;23.99;38.11
48862;BME280;34681;49.188;-0.374;2022-07-18T03:24:28;101781.31;;;24.15;38.03
48862;BME280;34681;49.188;-0.374;2022-07-18T03:26:54;101782.66;;;24.26;37.55
48862;BME280;34681;49.188;-0.374;2022-07-18T03:29:19;101780.06;;;24.18;37.81
48862;BME280;34681;49.188;-0.374;2022-07-18T03:31:45;101783.63;;;23.98;38.17
48862;BME280;34681;49.188;-0.374;2022-07-18T03:34:10;101788.91;;;23.73;38.65
48862;BME280;34681;49.188;-0.374;2022-07-18T03:36:36;101783.06;;;23.62;39.38
48862;BME280;34681;49.188;-0.374;2022-07-18T03:39:03;101790.41;;;23.69;38.90
48862;BME280;34681;49.188;-0.374;2022-07-18T03:41:28;101782.91;;;23.70;39.10
48862;BME280;34681;49.188;-0.374;2022-07-18T03:43:54;101780.22;;;23.55;39.43
48862;BME280;34681;49.188;-0.374;2022-07-18T03:46:19;101783.34;;;23.39;39.70
48862;BME280;34681;49.188;-0.374;2022-07-18T03:48:45;101788.28;;;23.37;39.93
48862;BME280;34681;49.188;-0.374;2022-07-18T03:51:10;101792.09;;;23.29;40.15
48862;BME280;34681;49.188;-0.374;2022-07-18T03:53:35;101788.88;;;23.25;40.83
48862;BME280;34681;49.188;-0.374;2022-07-18T03:56:01;101786.41;;;23.16;40.83
48862;BME280;34681;49.188;-0.374;2022-07-18T03:58:26;101783.91;;;22.93;40.98
48862;BME280;34681;49.188;-0.374;2022-07-18T04:00:52;101772.16;;;22.76;40.90
48862;BME280;34681;49.188;-0.374;2022-07-18T04:03:17;101770.19;;;22.98;41.00
48862;BME280;34681;49.188;-0.374;2022-07-18T04:05:43;101771.22;;;23.25;40.42
48862;BME280;34681;49.188;-0.374;2022-07-18T04:08:09;101771.88;;;23.20;40.56
48862;BME280;34681;49.188;-0.374;2022-07-18T04:10:35;101776.69;;;23.05;41.09
48862;BME280;34681;49.188;-0.374;2022-07-18T04:13:01;101768.75;;;23.02;41.21
48862;BME280;34681;49.188;-0.374;2022-07-18T04:15:27;101760.69;;;22.86;41.94
48862;BME280;34681;49.188;-0.374;2022-07-18T04:17:52;101759.84;;;22.92;41.44
48862;BME280;34681;49.188;-0.374;2022-07-18T04:20:19;101762.56;;;23.13;41.35
48862;BME280;34681;49.188;-0.374;2022-07-18T04:22:52;101763.09;;;23.30;41.15
48862;BME280;34681;49.188;-0.374;2022-07-18T04:25:20;101765.69;;;23.32;40.74
48862;BME280;34681;49.188;-0.374;2022-07-18T04:27:47;101749.22;;;23.43;40.72
48862;BME280;34681;49.188;-0.374;2022-07-18T04:30:15;101763.88;;;23.52;40.92
48862;BME280;34681;49.188;-0.374;2022-07-18T04:32:40;101770.47;;;23.38;41.05
48862;BME280;34681;49.188;-0.374;2022-07-18T04:35:07;101748.53;;;23.35;41.33
48862;BME280;34681;49.188;-0.374;2022-07-18T04:37:33;101746.25;;;23.51;41.21
48862;BME280;34681;49.188;-0.374;2022-07-18T04:40:00;101746.13;;;23.66;40.98
48862;BME280;34681;49.188;-0.374;2022-07-18T04:42:26;101749.84;;;23.87;40.65
48862;BME280;34681;49.188;-0.374;2022-07-18T04:44:51;101748.19;;;24.05;40.37
48862;BME280;34681;49.188;-0.374;2022-07-18T04:47:17;101757.00;;;24.16;40.17
48862;BME280;34681;49.188;-0.374;2022-07-18T04:49:42;101744.97;;;24.02;40.58
48862;BME280;34681;49.188;-0.374;2022-07-18T04:52:07;101750.53;;;23.95;40.62
48862;BME280;34681;49.188;-0.374;2022-07-18T04:54:33;101744.31;;;24.00;40.27
48862;BME280;34681;49.188;-0.374;2022-07-18T04:56:58;101748.63;;;24.09;40.32
48862;BME280;34681;49.188;-0.374;2022-07-18T04:59:24;101750.56;;;24.02;40.68
48862;BME280;34681;49.188;-0.374;2022-07-18T05:01:49;101743.03;;;24.02;40.95
48862;BME280;34681;49.188;-0.374;2022-07-18T05:04:14;101751.00;;;24.12;40.56
48862;BME280;34681;49.188;-0.374;2022-07-18T05:06:40;101756.81;;;24.24;40.35
48862;BME280;34681;49.188;-0.374;2022-07-18T05:09:06;101760.03;;;24.21;40.36
48862;BME280;34681;49.188;-0.374;2022-07-18T05:11:31;101748.94;;;24.67;39.83
48862;BME280;34681;49.188;-0.374;2022-07-18T05:13:56;101756.66;;;24.91;39.46
48862;BME280;34681;49.188;-0.374;2022-07-18T05:16:22;101756.00;;;24.96;39.14
48862;BME280;34681;49.188;-0.374;2022-07-18T05:18:47;101753.38;;;25.21;38.42
48862;BME280;34681;49.188;-0.374;2022-07-18T05:21:12;101749.22;;;25.50;37.78
48862;BME280;34681;49.188;-0.374;2022-07-18T05:23:38;101743.72;;;26.13;36.81
48862;BME280;34681;49.188;-0.374;2022-07-18T05:26:03;101744.44;;;26.90;36.22
48862;BME280;34681;49.188;-0.374;2022-07-18T05:28:28;101748.59;;;27.31;35.15
48862;BME280;34681;49.188;-0.374;2022-07-18T05:30:54;101743.09;;;27.54;34.43
48862;BME280;34681;49.188;-0.374;2022-07-18T05:33:20;101746.34;;;27.88;33.67
48862;BME280;34681;49.188;-0.374;2022-07-18T05:35:46;101733.41;;;28.17;33.42
48862;BME280;34681;49.188;-0.374;2022-07-18T05:38:11;101747.13;;;28.55;32.37
48862;BME280;34681;49.188;-0.374;2022-07-18T05:40:37;101747.22;;;28.60;32.70
48862;BME280;34681;49.188;-0.374;2022-07-18T05:43:02;101750.06;;;28.72;33.04
48862;BME280;34681;49.188;-0.374;2022-07-18T05:45:28;101752.34;;;28.40;33.17
48862;BME280;34681;49.188;-0.374;2022-07-18T05:47:54;101747.41;;;28.05;33.82
48862;BME280;34681;49.188;-0.374;2022-07-18T05:50:20;101743.50;;;27.76;34.23
48862;BME280;34681;49.188;-0.374;2022-07-18T05:52:46;101748.72;;;27.54;34.14
48862;BME280;34681;49.188;-0.374;2022-07-18T05:55:11;101742.31;;;27.29;34.70
48862;BME280;34681;49.188;-0.374;2022-07-18T05:57:37;101746.72;;;27.25;34.72
48862;BME280;34681;49.188;-0.374;2022-07-18T06:00:05;101736.16;;;27.38;34.88
48862;BME280;34681;49.188;-0.374;2022-07-18T06:02:30;101735.69;;;27.41;34.41
48862;BME280;34681;49.188;-0.374;2022-07-18T06:04:56;101740.22;;;28.09;33.37
48862;BME280;34681;49.188;-0.374;2022-07-18T06:07:21;101731.44;;;28.71;32.91
48862;BME280;34681;49.188;-0.374;2022-07-18T06:09:47;101729.88;;;29.10;32.60
48862;BME280;34681;49.188;-0.374;2022-07-18T06:12:12;101725.81;;;29.41;32.03
48862;BME280;34681;49.188;-0.374;2022-07-18T06:14:37;101729.78;;;29.69;31.83
48862;BME280;34681;49.188;-0.374;2022-07-18T06:17:03;101728.97;;;29.97;31.38
48862;BME280;34681;49.188;-0.374;2022-07-18T06:19:29;101733.03;;;30.17;31.22
48862;BME280;34681;49.188;-0.374;2022-07-18T06:21:54;101728.38;;;30.40;30.89
48862;BME280;34681;49.188;-0.374;2022-07-18T06:24:19;101731.06;;;30.63;30.75
48862;BME280;34681;49.188;-0.374;2022-07-18T06:26:45;101739.28;;;30.82;30.56
48862;BME280;34681;49.188;-0.374;2022-07-18T06:29:10;101735.47;;;31.10;30.38
48862;BME280;34681;49.188;-0.374;2022-07-18T06:31:36;101733.00;;;31.13;30.05
48862;BME280;34681;49.188;-0.374;2022-07-18T06:34:02;101730.59;;;31.22;29.87
48862;BME280;34681;49.188;-0.374;2022-07-18T06:36:27;101735.88;;;31.57;29.74
48862;BME280;34681;49.188;-0.374;2022-07-18T06:38:53;101733.56;;;31.98;29.69
48862;BME280;34681;49.188;-0.374;2022-07-18T06:41:19;101744.84;;;32.20;29.73
48862;BME280;34681;49.188;-0.374;2022-07-18T06:43:44;101742.06;;;32.25;28.34
48862;BME280;34681;49.188;-0.374;2022-07-18T06:46:10;101744.47;;;32.11;28.38
48862;BME280;34681;49.188;-0.374;2022-07-18T06:48:36;101734.25;;;32.10;28.14
48862;BME280;34681;49.188;-0.374;2022-07-18T06:51:03;101739.28;;;32.30;28.56
48862;BME280;34681;49.188;-0.374;2022-07-18T06:53:30;101734.09;;;32.49;28.18
48862;BME280;34681;49.188;-0.374;2022-07-18T06:55:56;101741.31;;;32.61;28.03
48862;BME280;34681;49.188;-0.374;2022-07-18T06:58:21;101735.41;;;32.68;28.02
48862;BME280;34681;49.188;-0.374;2022-07-18T07:00:47;101735.75;;;32.77;27.97
48862;BME280;34681;49.188;-0.374;2022-07-18T07:03:12;101739.13;;;32.74;27.91
48862;BME280;34681;49.188;-0.374;2022-07-18T07:05:38;101731.50;;;32.74;27.49
48862;BME280;34681;49.188;-0.374;2022-07-18T07:08:04;101738.13;;;32.85;27.48
48862;BME280;34681;49.188;-0.374;2022-07-18T07:10:32;101737.69;;;33.03;27.39
48862;BME280;34681;49.188;-0.374;2022-07-18T07:12:58;101748.06;;;33.30;27.37
48862;BME280;34681;49.188;-0.374;2022-07-18T07:15:23;101745.09;;;33.51;26.82
48862;BME280;34681;49.188;-0.374;2022-07-18T07:17:50;101748.56;;;33.69;26.10
48862;BME280;34681;49.188;-0.374;2022-07-18T07:20:17;101744.31;;;33.71;26.62
48862;BME280;34681;49.188;-0.374;2022-07-18T07:22:46;101740.50;;;33.40;25.27
48862;BME280;34681;49.188;-0.374;2022-07-18T07:25:13;101739.13;;;33.06;25.18
48862;BME280;34681;49.188;-0.374;2022-07-18T07:27:38;101734.81;;;32.98;25.94
48862;BME280;34681;49.188;-0.374;2022-07-18T07:30:04;101735.19;;;33.12;25.31
48862;BME280;34681;49.188;-0.374;2022-07-18T07:32:35;101736.94;;;33.75;25.54
48862;BME280;34681;49.188;-0.374;2022-07-18T07:35:01;101732.28;;;34.22;25.29
48862;BME280;34681;49.188;-0.374;2022-07-18T07:37:26;101742.88;;;34.52;25.16
48862;BME280;34681;49.188;-0.374;2022-07-18T07:39:51;101738.88;;;34.68;24.76
48862;BME280;34681;49.188;-0.374;2022-07-18T07:42:17;101740.03;;;34.93;24.67
48862;BME280;34681;49.188;-0.374;2022-07-18T07:44:42;101744.28;;;35.10;23.73
48862;BME280;34681;49.188;-0.374;2022-07-18T07:47:08;101741.72;;;35.04;23.69
48862;BME280;34681;49.188;-0.374;2022-07-18T07:49:33;101748.53;;;34.57;23.16
48862;BME280;34681;49.188;-0.374;2022-07-18T07:52:00;101744.84;;;34.56;23.63
48862;BME280;34681;49.188;-0.374;2022-07-18T07:54:26;101737.72;;;35.10;23.33
48862;BME280;34681;49.188;-0.374;2022-07-18T07:56:51;101737.84;;;35.64;23.47
48862;BME280;34681;49.188;-0.374;2022-07-18T07:59:17;101743.69;;;35.98;23.12
48862;BME280;34681;49.188;-0.374;2022-07-18T08:01:42;101741.44;;;35.90;22.24
48862;BME280;34681;49.188;-0.374;2022-07-18T08:04:08;101741.25;;;35.71;22.20
48862;BME280;34681;49.188;-0.374;2022-07-18T08:06:33;101729.31;;;35.64;21.30
48862;BME280;34681;49.188;-0.374;2022-07-18T08:08:59;101738.34;;;35.92;22.05
48862;BME280;34681;49.188;-0.374;2022-07-18T08:11:24;101729.94;;;36.55;21.74
48862;BME280;34681;49.188;-0.374;2022-07-18T08:13:49;101733.09;;;36.82;21.16
48862;BME280;34681;49.188;-0.374;2022-07-18T08:16:15;101743.53;;;37.26;21.17
48862;BME280;34681;49.188;-0.374;2022-07-18T08:18:40;101736.34;;;37.34;19.99
48862;BME280;34681;49.188;-0.374;2022-07-18T08:21:05;101729.91;;;36.89;20.90
48862;BME280;34681;49.188;-0.374;2022-07-18T08:23:31;101734.63;;;37.04;20.06
48862;BME280;34681;49.188;-0.374;2022-07-18T08:25:56;101735.69;;;36.84;20.55
48862;BME280;34681;49.188;-0.374;2022-07-18T08:28:22;101731.06;;;37.65;20.46
48862;BME280;34681;49.188;-0.374;2022-07-18T08:30:49;101732.31;;;37.83;19.47
48862;BME280;34681;49.188;-0.374;2022-07-18T08:33:14;101735.41;;;38.43;19.41
48862;BME280;34681;49.188;-0.374;2022-07-18T08:35:43;101732.41;;;39.46;18.86
48862;BME280;34681;49.188;-0.374;2022-07-18T08:38:11;101745.03;;;40.36;17.60
48862;BME280;34681;49.188;-0.374;2022-07-18T08:40:37;101736.13;;;40.82;16.82
48862;BME280;34681;49.188;-0.374;2022-07-18T08:43:03;101742.13;;;41.65;16.63
48862;BME280;34681;49.188;-0.374;2022-07-18T08:45:29;101732.75;;;42.86;15.22
48862;BME280;34681;49.188;-0.374;2022-07-18T08:47:54;101729.97;;;44.21;14.93
48862;BME280;34681;49.188;-0.374;2022-07-18T08:50:20;101728.66;;;45.30;13.49
48862;BME280;34681;49.188;-0.374;2022-07-18T08:52:46;101725.78;;;45.91;12.92
48862;BME280;34681;49.188;-0.374;2022-07-18T08:55:11;101733.31;;;46.89;12.94
48862;BME280;34681;49.188;-0.374;2022-07-18T08:57:37;101733.41;;;48.03;12.08
48862;BME280;34681;49.188;-0.374;2022-07-18T09:00:05;101730.34;;;47.48;11.81
48862;BME280;34681;49.188;-0.374;2022-07-18T09:02:31;101733.72;;;48.17;11.31
48862;BME280;34681;49.188;-0.374;2022-07-18T09:05:00;101731.72;;;49.21;11.15
48862;BME280;34681;49.188;-0.374;2022-07-18T09:07:32;101719.63;;;49.16;11.21
48862;BME280;34681;49.188;-0.374;2022-07-18T09:09:59;101717.88;;;50.14;10.49
48862;BME280;34681;49.188;-0.374;2022-07-18T09:12:26;101722.72;;;51.03;10.36
48862;BME280;34681;49.188;-0.374;2022-07-18T09:14:53;101718.34;;;51.75;9.88
48862;BME280;34681;49.188;-0.374;2022-07-18T09:17:22;101706.84;;;53.12;10.00
48862;BME280;34681;49.188;-0.374;2022-07-18T09:20:09;101705.09;;;52.72;9.11
48862;BME280;34681;49.188;-0.374;2022-07-18T09:22:41;101704.75;;;53.41;9.16
48862;BME280;34681;49.188;-0.374;2022-07-18T09:25:08;101698.84;;;53.91;8.82
48862;BME280;34681;49.188;-0.374;2022-07-18T09:30:16;101707.09;;;55.02;8.76
48862;BME280;34681;49.188;-0.374;2022-07-18T09:35:27;101703.41;;;55.46;8.10
48862;BME280;34681;49.188;-0.374;2022-07-18T09:37:55;101697.06;;;54.29;8.13
48862;BME280;34681;49.188;-0.374;2022-07-18T09:40:26;101686.53;;;50.67;9.73
48862;BME280;34681;49.188;-0.374;2022-07-18T09:42:54;101686.16;;;47.67;11.89
48862;BME280;34681;49.188;-0.374;2022-07-18T09:45:32;101672.75;;;46.00;13.11
48862;BME280;34681;49.188;-0.374;2022-07-18T09:48:08;101668.09;;;43.39;14.43
48862;BME280;34681;49.188;-0.374;2022-07-18T09:50:42;101678.66;;;41.84;15.75
48862;BME280;34681;49.188;-0.374;2022-07-18T09:55:35;101661.13;;;40.66;16.81
48862;BME280;34681;49.188;-0.374;2022-07-18T09:58:06;101665.84;;;39.40;17.39
48862;BME280;34681;49.188;-0.374;2022-07-18T10:00:36;101660.91;;;38.53;18.64
48862;BME280;34681;49.188;-0.374;2022-07-18T10:03:04;101657.38;;;37.91;19.70
48862;BME280;34681;49.188;-0.374;2022-07-18T10:05:33;101653.47;;;37.15;19.51
48862;BME280;34681;49.188;-0.374;2022-07-18T10:08:05;101649.84;;;36.86;20.13
48862;BME280;34681;49.188;-0.374;2022-07-18T10:10:31;101651.88;;;36.51;20.68
48862;BME280;34681;49.188;-0.374;2022-07-18T10:12:59;101641.47;;;36.31;20.91
48862;BME280;34681;49.188;-0.374;2022-07-18T10:15:27;101649.28;;;36.15;21.01
48862;BME280;34681;49.188;-0.374;2022-07-18T10:17:54;101647.50;;;35.90;21.42
48862;BME280;34681;49.188;-0.374;2022-07-18T10:20:31;101649.28;;;35.76;21.29
48862;BME280;34681;49.188;-0.374;2022-07-18T10:23:01;101649.81;;;35.18;21.64
48862;BME280;34681;49.188;-0.374;2022-07-18T10:31:28;101645.06;;;34.94;22.32
48862;BME280;34681;49.188;-0.374;2022-07-18T10:34:14;101636.50;;;35.04;21.83
48862;BME280;34681;49.188;-0.374;2022-07-18T10:39:16;101638.84;;;34.66;22.15
48862;BME280;34681;49.188;-0.374;2022-07-18T11:02:39;101618.84;;;35.12;21.91
48862;BME280;34681;49.188;-0.374;2022-07-18T11:21:30;101594.28;;;35.36;21.09
48862;BME280;34681;49.188;-0.374;2022-07-18T11:24:05;101603.53;;;35.62;21.21
48862;BME280;34681;49.188;-0.374;2022-07-18T11:26:38;101593.31;;;35.61;21.00
48862;BME280;34681;49.188;-0.374;2022-07-18T11:29:10;101587.94;;;35.55;21.34
48862;BME280;34681;49.188;-0.374;2022-07-18T11:32:03;101589.09;;;35.49;21.33
48862;BME280;34681;49.188;-0.374;2022-07-18T11:34:29;101586.09;;;35.74;21.07
48862;BME280;34681;49.188;-0.374;2022-07-18T11:36:55;101588.38;;;35.77;21.62
48862;BME280;34681;49.188;-0.374;2022-07-18T11:39:32;101588.38;;;35.72;21.08
48862;BME280;34681;49.188;-0.374;2022-07-18T11:42:00;101588.38;;;35.72;20.43
48862;BME280;34681;49.188;-0.374;2022-07-18T11:44:26;101575.28;;;35.76;21.31
48862;BME280;34681;49.188;-0.374;2022-07-18T11:47:21;101574.06;;;35.82;20.88
48862;BME280;34681;49.188;-0.374;2022-07-18T11:49:54;101570.63;;;35.90;20.49
48862;BME280;34681;49.188;-0.374;2022-07-18T11:52:21;101559.53;;;35.89;20.46
48862;BME280;34681;49.188;-0.374;2022-07-18T11:54:46;101555.19;;;35.96;19.85
48862;BME280;34681;49.188;-0.374;2022-07-18T11:57:12;101559.81;;;35.87;19.93
48862;BME280;34681;49.188;-0.374;2022-07-18T11:59:41;101559.19;;;35.95;20.36
48862;BME280;34681;49.188;-0.374;2022-07-18T12:02:09;101553.81;;;35.94;19.79
48862;BME280;34681;49.188;-0.374;2022-07-18T12:04:36;101546.84;;;36.10;19.46
48862;BME280;34681;49.188;-0.374;2022-07-18T12:09:43;101549.16;;;36.37;19.82
48862;BME280;34681;49.188;-0.374;2022-07-18T12:12:14;101550.00;;;36.38;19.14
48862;BME280;34681;49.188;-0.374;2022-07-18T12:14:40;101549.22;;;36.27;19.11
48862;BME280;34681;49.188;-0.374;2022-07-18T12:17:06;101543.84;;;36.25;19.08
48862;BME280;34681;49.188;-0.374;2022-07-18T12:19:36;101544.00;;;36.39;20.37
48862;BME280;34681;49.188;-0.374;2022-07-18T12:27:24;101524.84;;;36.45;18.89
48862;BME280;34681;49.188;-0.374;2022-07-18T12:30:12;101526.94;;;36.34;20.14
48862;BME280;34681;49.188;-0.374;2022-07-18T12:32:56;101530.59;;;36.40;20.12
48862;BME280;34681;49.188;-0.374;2022-07-18T12:35:29;101529.28;;;36.27;20.64
48862;BME280;34681;49.188;-0.374;2022-07-18T12:38:20;101527.09;;;36.48;20.27
48862;BME280;34681;49.188;-0.374;2022-07-18T12:40:51;101522.59;;;36.66;19.84
48862;BME280;34681;49.188;-0.374;2022-07-18T12:45:54;101523.66;;;36.51;20.04
48862;BME280;34681;49.188;-0.374;2022-07-18T12:48:20;101516.78;;;36.52;20.49
48862;BME280;34681;49.188;-0.374;2022-07-18T12:50:46;101517.66;;;36.52;20.74
48862;BME280;34681;49.188;-0.374;2022-07-18T12:53:20;101509.63;;;36.54;21.27
48862;BME280;34681;49.188;-0.374;2022-07-18T12:55:45;101507.44;;;36.46;21.63
48862;BME280;34681;49.188;-0.374;2022-07-18T12:58:11;101506.06;;;36.44;20.81
48862;BME280;34681;49.188;-0.374;2022-07-18T13:00:37;101495.88;;;36.33;20.20
48862;BME280;34681;49.188;-0.374;2022-07-18T13:03:02;101491.72;;;36.25;20.06
48862;BME280;34681;49.188;-0.374;2022-07-18T13:05:29;101487.84;;;36.40;19.73
48862;BME280;34681;49.188;-0.374;2022-07-18T13:07:55;101482.72;;;36.42;20.44
48862;BME280;34681;49.188;-0.374;2022-07-18T13:10:21;101486.16;;;36.39;19.68
48862;BME280;34681;49.188;-0.374;2022-07-18T13:12:46;101478.03;;;36.27;20.58
48862;BME280;34681;49.188;-0.374;2022-07-18T13:15:12;101481.28;;;36.44;19.86
48862;BME280;34681;49.188;-0.374;2022-07-18T13:17:38;101474.75;;;36.63;19.20
48862;BME280;34681;49.188;-0.374;2022-07-18T13:20:03;101484.53;;;36.56;20.06
48862;BME280;34681;49.188;-0.374;2022-07-18T13:22:30;101469.91;;;36.63;19.53
48862;BME280;34681;49.188;-0.374;2022-07-18T13:25:06;101449.28;;;36.71;19.84
48862;BME280;34681;49.188;-0.374;2022-07-18T13:27:32;101456.50;;;36.64;20.23
48862;BME280;34681;49.188;-0.374;2022-07-18T13:29:57;101462.88;;;36.55;19.53
48862;BME280;34681;49.188;-0.374;2022-07-18T13:32:23;101456.44;;;36.69;18.67
48862;BME280;34681;49.188;-0.374;2022-07-18T13:34:48;101440.88;;;36.85;19.45
48862;BME280;34681;49.188;-0.374;2022-07-18T13:37:13;101445.94;;;36.88;19.44
48862;BME280;34681;49.188;-0.374;2022-07-18T13:39:39;101439.09;;;36.65;19.99
48862;BME280;34681;49.188;-0.374;2022-07-18T13:42:05;101445.19;;;36.59;19.82
48862;BME280;34681;49.188;-0.374;2022-07-18T13:44:31;101442.91;;;36.79;19.43